D Hanis, Texas
Current Conditions -  °F | °C
As of 8:00 PM on Thursday 18 Dec 2014 (Local Time) from KHDO Reporting Station
Overcast Overcast  
Wind Chill: 62°   Ceiling: 900
Heat Index: 62°   Visibility: 10mi
Dew Point: 58°   Wind: 13mph
Humidity: 86%   Direction: 70°ENE
Pressure: 30.03"   Gusts: NA
Location:  29.3507°N, 99.3117°W
Report Text: KHDO 190200Z AUTO 07011KT 10SM BKN009 OVC044 17/14 A3003 RMK AO2 T01670144
Loading
Personal Weather Stations






























Interactive Weather Map New forecast layout! Learn more

10-Day Weather Forecast

Advertisements
Track Severe Weather on mobile